sensor_id;sensor_type;location;lat;lon;timestamp;P1;durP1;ratioP1;P2;durP2;ratioP2
22378;SDS011;11357;49.990;7.370;2023-07-20T00:01:03;5.43;;;2.53;;
22378;SDS011;11357;49.990;7.370;2023-07-20T00:03:29;4.53;;;2.27;;
22378;SDS011;11357;49.990;7.370;2023-07-20T00:05:55;5.23;;;2.80;;
22378;SDS011;11357;49.990;7.370;2023-07-20T00:08:20;8.80;;;2.80;;
22378;SDS011;11357;49.990;7.370;2023-07-20T00:10:46;5.90;;;2.70;;
22378;SDS011;11357;49.990;7.370;2023-07-20T00:13:12;5.23;;;3.33;;
22378;SDS011;11357;49.990;7.370;2023-07-20T00:15:38;6.07;;;2.80;;
22378;SDS011;11357;49.990;7.370;2023-07-20T00:18:04;5.30;;;2.27;;
22378;SDS011;11357;49.990;7.370;2023-07-20T00:20:30;4.73;;;2.40;;
22378;SDS011;11357;49.990;7.370;2023-07-20T00:22:56;4.73;;;2.70;;
22378;SDS011;11357;49.990;7.370;2023-07-20T00:25:23;5.93;;;2.80;;
22378;SDS011;11357;49.990;7.370;2023-07-20T00:27:49;3.93;;;2.40;;
22378;SDS011;11357;49.990;7.370;2023-07-20T00:30:15;6.70;;;2.70;;
22378;SDS011;11357;49.990;7.370;2023-07-20T00:32:44;5.80;;;2.53;;
22378;SDS011;11357;49.990;7.370;2023-07-20T00:35:10;11.10;;;3.07;;
22378;SDS011;11357;49.990;7.370;2023-07-20T00:37:36;5.60;;;2.57;;
22378;SDS011;11357;49.990;7.370;2023-07-20T00:40:02;4.20;;;2.50;;
22378;SDS011;11357;49.990;7.370;2023-07-20T00:42:34;6.67;;;2.47;;
22378;SDS011;11357;49.990;7.370;2023-07-20T00:45:00;5.87;;;3.00;;
22378;SDS011;11357;49.990;7.370;2023-07-20T00:47:26;4.90;;;2.37;;
22378;SDS011;11357;49.990;7.370;2023-07-20T00:49:52;4.73;;;2.50;;
22378;SDS011;11357;49.990;7.370;2023-07-20T00:52:20;3.97;;;2.70;;
22378;SDS011;11357;49.990;7.370;2023-07-20T00:54:48;4.57;;;2.80;;
22378;SDS011;11357;49.990;7.370;2023-07-20T00:57:15;8.03;;;2.90;;
22378;SDS011;11357;49.990;7.370;2023-07-20T00:59:42;6.53;;;2.73;;
22378;SDS011;11357;49.990;7.370;2023-07-20T01:02:08;4.57;;;2.60;;
22378;SDS011;11357;49.990;7.370;2023-07-20T01:04:34;5.20;;;2.60;;
22378;SDS011;11357;49.990;7.370;2023-07-20T01:07:24;4.30;;;2.80;;
22378;SDS011;11357;49.990;7.370;2023-07-20T01:10:01;4.97;;;2.73;;
22378;SDS011;11357;49.990;7.370;2023-07-20T01:12:34;7.17;;;2.90;;
22378;SDS011;11357;49.990;7.370;2023-07-20T01:15:06;5.03;;;2.73;;
22378;SDS011;11357;49.990;7.370;2023-07-20T01:17:33;4.73;;;2.57;;
22378;SDS011;11357;49.990;7.370;2023-07-20T01:19:59;6.83;;;3.20;;
22378;SDS011;11357;49.990;7.370;2023-07-20T01:34:00;4.23;;;2.70;;
22378;SDS011;11357;49.990;7.370;2023-07-20T01:36:30;6.40;;;3.10;;
22378;SDS011;11357;49.990;7.370;2023-07-20T01:38:59;4.90;;;2.40;;
22378;SDS011;11357;49.990;7.370;2023-07-20T01:41:25;7.67;;;2.70;;
22378;SDS011;11357;49.990;7.370;2023-07-20T01:43:51;5.27;;;2.40;;
22378;SDS011;11357;49.990;7.370;2023-07-20T01:46:16;8.10;;;3.23;;
22378;SDS011;11357;49.990;7.370;2023-07-20T01:48:42;3.67;;;2.77;;
22378;SDS011;11357;49.990;7.370;2023-07-20T01:51:08;5.17;;;2.80;;
22378;SDS011;11357;49.990;7.370;2023-07-20T01:53:34;5.07;;;2.93;;
22378;SDS011;11357;49.990;7.370;2023-07-20T01:55:59;4.27;;;2.87;;
22378;SDS011;11357;49.990;7.370;2023-07-20T01:58:25;2.80;;;2.47;;
22378;SDS011;11357;49.990;7.370;2023-07-20T02:00:51;5.20;;;3.03;;
22378;SDS011;11357;49.990;7.370;2023-07-20T02:03:16;5.97;;;3.03;;
22378;SDS011;11357;49.990;7.370;2023-07-20T02:05:42;5.40;;;2.93;;
22378;SDS011;11357;49.990;7.370;2023-07-20T02:08:08;4.73;;;3.10;;
22378;SDS011;11357;49.990;7.370;2023-07-20T02:10:34;4.93;;;2.90;;
22378;SDS011;11357;49.990;7.370;2023-07-20T02:13:00;7.27;;;3.20;;
22378;SDS011;11357;49.990;7.370;2023-07-20T02:15:26;5.80;;;2.63;;
22378;SDS011;11357;49.990;7.370;2023-07-20T02:17:52;3.37;;;2.60;;
22378;SDS011;11357;49.990;7.370;2023-07-20T02:20:18;10.53;;;3.33;;
22378;SDS011;11357;49.990;7.370;2023-07-20T02:22:44;6.07;;;3.07;;
22378;SDS011;11357;49.990;7.370;2023-07-20T02:25:10;5.97;;;3.00;;
22378;SDS011;11357;49.990;7.370;2023-07-20T02:27:36;5.80;;;3.17;;
22378;SDS011;11357;49.990;7.370;2023-07-20T02:30:02;6.30;;;3.07;;
22378;SDS011;11357;49.990;7.370;2023-07-20T02:32:29;7.17;;;2.73;;
22378;SDS011;11357;49.990;7.370;2023-07-20T02:34:55;4.90;;;2.97;;
22378;SDS011;11357;49.990;7.370;2023-07-20T02:37:21;4.63;;;2.70;;
22378;SDS011;11357;49.990;7.370;2023-07-20T02:39:46;4.17;;;2.97;;
22378;SDS011;11357;49.990;7.370;2023-07-20T02:42:12;4.00;;;2.60;;
22378;SDS011;11357;49.990;7.370;2023-07-20T02:44:38;4.17;;;2.60;;
22378;SDS011;11357;49.990;7.370;2023-07-20T02:47:04;7.10;;;2.80;;
22378;SDS011;11357;49.990;7.370;2023-07-20T02:49:30;7.00;;;2.90;;
22378;SDS011;11357;49.990;7.370;2023-07-20T02:51:55;5.03;;;2.60;;
22378;SDS011;11357;49.990;7.370;2023-07-20T02:54:21;7.37;;;2.80;;
22378;SDS011;11357;49.990;7.370;2023-07-20T02:56:47;5.93;;;3.03;;
22378;SDS011;11357;49.990;7.370;2023-07-20T02:59:12;5.90;;;2.83;;
22378;SDS011;11357;49.990;7.370;2023-07-20T03:01:38;8.23;;;3.47;;
22378;SDS011;11357;49.990;7.370;2023-07-20T03:04:04;9.37;;;3.33;;
22378;SDS011;11357;49.990;7.370;2023-07-20T03:06:30;4.80;;;2.63;;
22378;SDS011;11357;49.990;7.370;2023-07-20T03:08:55;3.90;;;2.87;;
22378;SDS011;11357;49.990;7.370;2023-07-20T03:11:21;4.30;;;2.93;;
22378;SDS011;11357;49.990;7.370;2023-07-20T03:13:47;6.00;;;3.37;;
22378;SDS011;11357;49.990;7.370;2023-07-20T03:16:13;5.47;;;3.00;;
22378;SDS011;11357;49.990;7.370;2023-07-20T03:18:42;4.97;;;3.10;;
22378;SDS011;11357;49.990;7.370;2023-07-20T03:21:09;6.53;;;3.10;;
22378;SDS011;11357;49.990;7.370;2023-07-20T03:23:41;7.07;;;3.20;;
22378;SDS011;11357;49.990;7.370;2023-07-20T03:26:07;4.60;;;2.87;;
22378;SDS011;11357;49.990;7.370;2023-07-20T03:28:36;7.27;;;2.70;;
22378;SDS011;11357;49.990;7.370;2023-07-20T03:31:03;4.30;;;2.97;;
22378;SDS011;11357;49.990;7.370;2023-07-20T03:33:29;8.27;;;3.57;;
22378;SDS011;11357;49.990;7.370;2023-07-20T03:35:56;9.10;;;3.30;;
22378;SDS011;11357;49.990;7.370;2023-07-20T03:38:22;6.60;;;3.50;;
22378;SDS011;11357;49.990;7.370;2023-07-20T03:40:58;5.17;;;3.00;;
22378;SDS011;11357;49.990;7.370;2023-07-20T03:43:25;4.50;;;3.23;;
22378;SDS011;11357;49.990;7.370;2023-07-20T03:45:52;7.07;;;3.00;;
22378;SDS011;11357;49.990;7.370;2023-07-20T03:48:19;8.57;;;3.00;;
22378;SDS011;11357;49.990;7.370;2023-07-20T03:50:51;6.20;;;3.00;;
22378;SDS011;11357;49.990;7.370;2023-07-20T03:53:17;6.23;;;3.30;;
22378;SDS011;11357;49.990;7.370;2023-07-20T03:55:47;7.37;;;3.27;;
22378;SDS011;11357;49.990;7.370;2023-07-20T03:58:14;6.00;;;3.43;;
22378;SDS011;11357;49.990;7.370;2023-07-20T04:00:43;10.43;;;3.00;;
22378;SDS011;11357;49.990;7.370;2023-07-20T04:03:10;4.43;;;2.87;;
22378;SDS011;11357;49.990;7.370;2023-07-20T04:05:35;5.33;;;3.20;;
22378;SDS011;11357;49.990;7.370;2023-07-20T04:08:01;5.30;;;3.53;;
22378;SDS011;11357;49.990;7.370;2023-07-20T04:10:26;6.67;;;3.23;;
22378;SDS011;11357;49.990;7.370;2023-07-20T04:12:52;7.07;;;3.33;;
22378;SDS011;11357;49.990;7.370;2023-07-20T04:15:18;7.23;;;3.20;;
22378;SDS011;11357;49.990;7.370;2023-07-20T04:17:44;7.57;;;3.20;;
22378;SDS011;11357;49.990;7.370;2023-07-20T04:20:10;6.70;;;3.43;;
22378;SDS011;11357;49.990;7.370;2023-07-20T04:22:36;8.40;;;3.63;;
22378;SDS011;11357;49.990;7.370;2023-07-20T04:25:02;7.37;;;3.17;;
22378;SDS011;11357;49.990;7.370;2023-07-20T04:27:29;6.23;;;3.23;;
22378;SDS011;11357;49.990;7.370;2023-07-20T04:29:55;6.47;;;3.03;;
22378;SDS011;11357;49.990;7.370;2023-07-20T04:34:59;4.77;;;3.00;;
22378;SDS011;11357;49.990;7.370;2023-07-20T04:37:25;4.73;;;2.70;;
22378;SDS011;11357;49.990;7.370;2023-07-20T04:39:50;7.50;;;2.90;;
22378;SDS011;11357;49.990;7.370;2023-07-20T04:42:16;4.77;;;2.97;;
22378;SDS011;11357;49.990;7.370;2023-07-20T04:44:42;5.03;;;2.97;;
22378;SDS011;11357;49.990;7.370;2023-07-20T04:47:07;4.33;;;2.93;;
22378;SDS011;11357;49.990;7.370;2023-07-20T04:49:36;4.43;;;2.87;;
22378;SDS011;11357;49.990;7.370;2023-07-20T04:52:01;6.97;;;3.13;;
22378;SDS011;11357;49.990;7.370;2023-07-20T04:54:27;7.50;;;3.30;;
22378;SDS011;11357;49.990;7.370;2023-07-20T04:56:53;5.30;;;2.93;;
22378;SDS011;11357;49.990;7.370;2023-07-20T04:59:19;4.77;;;2.67;;
22378;SDS011;11357;49.990;7.370;2023-07-20T05:01:45;5.47;;;2.63;;
22378;SDS011;11357;49.990;7.370;2023-07-20T05:04:10;8.80;;;3.20;;
22378;SDS011;11357;49.990;7.370;2023-07-20T05:06:36;9.27;;;3.43;;
22378;SDS011;11357;49.990;7.370;2023-07-20T05:09:03;6.13;;;2.80;;
22378;SDS011;11357;49.990;7.370;2023-07-20T05:11:30;4.13;;;2.60;;
22378;SDS011;11357;49.990;7.370;2023-07-20T05:13:56;6.47;;;2.83;;
22378;SDS011;11357;49.990;7.370;2023-07-20T05:16:21;3.90;;;2.53;;
22378;SDS011;11357;49.990;7.370;2023-07-20T05:18:47;3.83;;;2.80;;
22378;SDS011;11357;49.990;7.370;2023-07-20T05:21:13;6.20;;;3.13;;
22378;SDS011;11357;49.990;7.370;2023-07-20T05:23:38;4.87;;;2.90;;
22378;SDS011;11357;49.990;7.370;2023-07-20T05:26:04;6.80;;;3.00;;
22378;SDS011;11357;49.990;7.370;2023-07-20T05:28:30;7.53;;;3.20;;
22378;SDS011;11357;49.990;7.370;2023-07-20T05:30:56;4.43;;;2.80;;
22378;SDS011;11357;49.990;7.370;2023-07-20T05:33:24;8.27;;;3.07;;
22378;SDS011;11357;49.990;7.370;2023-07-20T05:35:50;5.63;;;3.60;;
22378;SDS011;11357;49.990;7.370;2023-07-20T05:38:16;10.30;;;3.20;;
22378;SDS011;11357;49.990;7.370;2023-07-20T05:40:41;4.30;;;2.73;;
22378;SDS011;11357;49.990;7.370;2023-07-20T05:43:09;5.93;;;2.80;;
22378;SDS011;11357;49.990;7.370;2023-07-20T05:45:34;4.80;;;2.77;;
22378;SDS011;11357;49.990;7.370;2023-07-20T05:48:00;6.83;;;2.87;;
22378;SDS011;11357;49.990;7.370;2023-07-20T05:50:26;4.60;;;2.80;;
22378;SDS011;11357;49.990;7.370;2023-07-20T05:52:52;8.03;;;3.47;;
22378;SDS011;11357;49.990;7.370;2023-07-20T05:55:18;4.37;;;2.80;;
22378;SDS011;11357;49.990;7.370;2023-07-20T05:57:44;5.93;;;3.00;;
22378;SDS011;11357;49.990;7.370;2023-07-20T06:00:10;6.87;;;3.13;;
22378;SDS011;11357;49.990;7.370;2023-07-20T06:02:37;4.47;;;2.90;;
22378;SDS011;11357;49.990;7.370;2023-07-20T06:05:04;4.17;;;2.67;;
22378;SDS011;11357;49.990;7.370;2023-07-20T06:07:30;7.57;;;2.93;;
22378;SDS011;11357;49.990;7.370;2023-07-20T06:09:56;7.23;;;2.70;;
22378;SDS011;11357;49.990;7.370;2023-07-20T06:12:23;3.30;;;2.33;;
22378;SDS011;11357;49.990;7.370;2023-07-20T06:14:49;5.23;;;2.67;;
22378;SDS011;11357;49.990;7.370;2023-07-20T06:17:14;4.97;;;2.67;;
22378;SDS011;11357;49.990;7.370;2023-07-20T06:19:40;6.90;;;2.83;;
22378;SDS011;11357;49.990;7.370;2023-07-20T06:22:06;7.47;;;3.17;;
22378;SDS011;11357;49.990;7.370;2023-07-20T06:24:31;6.45;;;2.83;;
22378;SDS011;11357;49.990;7.370;2023-07-20T06:26:57;4.60;;;2.75;;
22378;SDS011;11357;49.990;7.370;2023-07-20T06:29:23;6.30;;;2.88;;
22378;SDS011;11357;49.990;7.370;2023-07-20T06:31:48;8.85;;;3.45;;
22378;SDS011;11357;49.990;7.370;2023-07-20T06:34:14;6.87;;;2.73;;
22378;SDS011;11357;49.990;7.370;2023-07-20T06:36:40;6.22;;;2.72;;
22378;SDS011;11357;49.990;7.370;2023-07-20T06:39:05;9.10;;;3.05;;
22378;SDS011;11357;49.990;7.370;2023-07-20T06:41:31;7.20;;;2.65;;
22378;SDS011;11357;49.990;7.370;2023-07-20T06:43:57;6.17;;;2.57;;
22378;SDS011;11357;49.990;7.370;2023-07-20T06:46:26;9.13;;;2.73;;
22378;SDS011;11357;49.990;7.370;2023-07-20T06:48:52;6.72;;;2.75;;
22378;SDS011;11357;49.990;7.370;2023-07-20T06:51:18;6.18;;;3.35;;
22378;SDS011;11357;49.990;7.370;2023-07-20T06:53:45;8.82;;;3.05;;
22378;SDS011;11357;49.990;7.370;2023-07-20T06:56:11;5.07;;;2.90;;
22378;SDS011;11357;49.990;7.370;2023-07-20T06:58:36;6.13;;;2.30;;
22378;SDS011;11357;49.990;7.370;2023-07-20T07:01:05;8.25;;;3.00;;
22378;SDS011;11357;49.990;7.370;2023-07-20T07:03:32;6.30;;;2.78;;
22378;SDS011;11357;49.990;7.370;2023-07-20T07:05:58;8.48;;;3.22;;
22378;SDS011;11357;49.990;7.370;2023-07-20T07:08:24;6.13;;;3.42;;
22378;SDS011;11357;49.990;7.370;2023-07-20T07:10:50;6.43;;;3.45;;
22378;SDS011;11357;49.990;7.370;2023-07-20T07:13:17;6.18;;;3.17;;
22378;SDS011;11357;49.990;7.370;2023-07-20T07:15:43;7.00;;;3.38;;
22378;SDS011;11357;49.990;7.370;2023-07-20T07:18:08;6.47;;;2.70;;
22378;SDS011;11357;49.990;7.370;2023-07-20T07:20:34;7.78;;;3.00;;
22378;SDS011;11357;49.990;7.370;2023-07-20T07:22:59;6.53;;;3.10;;
22378;SDS011;11357;49.990;7.370;2023-07-20T07:25:25;6.65;;;3.08;;
22378;SDS011;11357;49.990;7.370;2023-07-20T07:27:52;4.70;;;2.80;;
22378;SDS011;11357;49.990;7.370;2023-07-20T07:30:18;13.27;;;2.60;;
22378;SDS011;11357;49.990;7.370;2023-07-20T07:32:44;5.15;;;2.90;;
22378;SDS011;11357;49.990;7.370;2023-07-20T07:35:10;4.68;;;2.40;;
22378;SDS011;11357;49.990;7.370;2023-07-20T07:37:36;5.68;;;2.60;;
22378;SDS011;11357;49.990;7.370;2023-07-20T07:40:03;9.50;;;2.60;;
22378;SDS011;11357;49.990;7.370;2023-07-20T07:42:30;4.68;;;2.40;;
22378;SDS011;11357;49.990;7.370;2023-07-20T07:44:56;4.82;;;2.72;;
22378;SDS011;11357;49.990;7.370;2023-07-20T07:47:22;8.43;;;2.95;;
22378;SDS011;11357;49.990;7.370;2023-07-20T07:49:47;3.75;;;2.85;;
22378;SDS011;11357;49.990;7.370;2023-07-20T07:52:14;5.03;;;2.25;;
22378;SDS011;11357;49.990;7.370;2023-07-20T07:54:40;6.70;;;2.55;;
22378;SDS011;11357;49.990;7.370;2023-07-20T07:57:05;7.00;;;2.33;;
22378;SDS011;11357;49.990;7.370;2023-07-20T07:59:31;4.07;;;2.50;;
22378;SDS011;11357;49.990;7.370;2023-07-20T08:02:01;6.05;;;2.80;;
22378;SDS011;11357;49.990;7.370;2023-07-20T08:04:29;8.27;;;3.58;;
22378;SDS011;11357;49.990;7.370;2023-07-20T08:06:55;7.20;;;3.47;;
22378;SDS011;11357;49.990;7.370;2023-07-20T08:09:21;7.07;;;2.70;;
22378;SDS011;11357;49.990;7.370;2023-07-20T08:11:46;5.50;;;2.67;;
22378;SDS011;11357;49.990;7.370;2023-07-20T08:14:13;4.80;;;2.70;;
22378;SDS011;11357;49.990;7.370;2023-07-20T08:16:39;6.80;;;3.10;;
22378;SDS011;11357;49.990;7.370;2023-07-20T08:22:39;7.53;;;2.88;;
22378;SDS011;11357;49.990;7.370;2023-07-20T08:26:05;6.25;;;3.30;;
22378;SDS011;11357;49.990;7.370;2023-07-20T08:29:37;4.68;;;3.03;;
22378;SDS011;11357;49.990;7.370;2023-07-20T08:32:45;4.03;;;2.58;;
22378;SDS011;11357;49.990;7.370;2023-07-20T08:35:18;4.13;;;2.80;;
22378;SDS011;11357;49.990;7.370;2023-07-20T08:38:25;4.68;;;2.65;;
22378;SDS011;11357;49.990;7.370;2023-07-20T08:40:51;5.35;;;3.30;;
22378;SDS011;11357;49.990;7.370;2023-07-20T08:43:18;8.13;;;3.03;;
22378;SDS011;11357;49.990;7.370;2023-07-20T08:45:45;6.10;;;3.00;;
22378;SDS011;11357;49.990;7.370;2023-07-20T08:48:11;6.90;;;2.72;;
22378;SDS011;11357;49.990;7.370;2023-07-20T08:50:38;4.13;;;2.70;;
22378;SDS011;11357;49.990;7.370;2023-07-20T08:53:03;4.15;;;2.63;;
22378;SDS011;11357;49.990;7.370;2023-07-20T08:55:29;5.70;;;3.15;;
22378;SDS011;11357;49.990;7.370;2023-07-20T08:57:57;5.40;;;2.63;;
22378;SDS011;11357;49.990;7.370;2023-07-20T09:00:24;4.63;;;2.97;;
22378;SDS011;11357;49.990;7.370;2023-07-20T09:02:55;5.82;;;2.75;;
22378;SDS011;11357;49.990;7.370;2023-07-20T09:05:24;4.35;;;2.55;;
22378;SDS011;11357;49.990;7.370;2023-07-20T09:09:05;4.13;;;2.30;;
22378;SDS011;11357;49.990;7.370;2023-07-20T09:12:29;5.00;;;2.35;;
22378;SDS011;11357;49.990;7.370;2023-07-20T09:22:53;3.85;;;2.40;;
22378;SDS011;11357;49.990;7.370;2023-07-20T09:29:31;2.83;;;2.53;;
22378;SDS011;11357;49.990;7.370;2023-07-20T09:36:53;4.60;;;2.55;;
22378;SDS011;11357;49.990;7.370;2023-07-20T09:56:30;4.55;;;2.60;;
22378;SDS011;11357;49.990;7.370;2023-07-20T10:10:49;3.25;;;1.92;;
22378;SDS011;11357;49.990;7.370;2023-07-20T10:34:58;4.45;;;1.63;;
22378;SDS011;11357;49.990;7.370;2023-07-20T10:40:33;3.05;;;1.80;;
22378;SDS011;11357;49.990;7.370;2023-07-20T10:45:33;4.32;;;2.22;;
22378;SDS011;11357;49.990;7.370;2023-07-20T10:48:02;4.05;;;1.60;;
22378;SDS011;11357;49.990;7.370;2023-07-20T10:50:29;4.47;;;1.55;;
22378;SDS011;11357;49.990;7.370;2023-07-20T10:53:09;4.15;;;1.98;;
22378;SDS011;11357;49.990;7.370;2023-07-20T10:55:36;4.18;;;2.20;;
22378;SDS011;11357;49.990;7.370;2023-07-20T10:58:08;4.13;;;1.92;;
22378;SDS011;11357;49.990;7.370;2023-07-20T11:00:36;6.63;;;2.10;;
22378;SDS011;11357;49.990;7.370;2023-07-20T11:03:02;2.60;;;1.77;;
22378;SDS011;11357;49.990;7.370;2023-07-20T11:05:31;3.15;;;1.40;;
22378;SDS011;11357;49.990;7.370;2023-07-20T11:07:59;3.22;;;1.40;;
22378;SDS011;11357;49.990;7.370;2023-07-20T11:10:25;3.22;;;1.75;;
22378;SDS011;11357;49.990;7.370;2023-07-20T11:18:21;2.28;;;1.38;;
22378;SDS011;11357;49.990;7.370;2023-07-20T11:20:50;4.65;;;1.42;;
22378;SDS011;11357;49.990;7.370;2023-07-20T11:23:19;2.67;;;1.40;;
22378;SDS011;11357;49.990;7.370;2023-07-20T11:25:45;2.85;;;1.67;;
22378;SDS011;11357;49.990;7.370;2023-07-20T11:28:11;2.90;;;1.77;;
22378;SDS011;11357;49.990;7.370;2023-07-20T11:30:37;4.80;;;1.48;;
22378;SDS011;11357;49.990;7.370;2023-07-20T11:33:04;2.22;;;1.23;;
22378;SDS011;11357;49.990;7.370;2023-07-20T11:35:30;2.30;;;1.35;;
22378;SDS011;11357;49.990;7.370;2023-07-20T11:37:56;1.77;;;1.25;;
22378;SDS011;11357;49.990;7.370;2023-07-20T11:40:22;2.92;;;1.63;;
22378;SDS011;11357;49.990;7.370;2023-07-20T11:42:49;3.45;;;1.45;;
22378;SDS011;11357;49.990;7.370;2023-07-20T11:45:16;2.88;;;1.20;;
22378;SDS011;11357;49.990;7.370;2023-07-20T11:47:42;1.85;;;1.23;;
22378;SDS011;11357;49.990;7.370;2023-07-20T11:50:09;2.30;;;1.10;;
22378;SDS011;11357;49.990;7.370;2023-07-20T11:52:35;2.05;;;1.30;;
22378;SDS011;11357;49.990;7.370;2023-07-20T11:55:02;2.38;;;1.20;;
22378;SDS011;11357;49.990;7.370;2023-07-20T11:57:29;1.63;;;1.20;;
22378;SDS011;11357;49.990;7.370;2023-07-20T12:00:02;4.03;;;1.15;;
22378;SDS011;11357;49.990;7.370;2023-07-20T12:02:37;1.83;;;1.15;;
22378;SDS011;11357;49.990;7.370;2023-07-20T12:05:05;2.78;;;1.25;;
22378;SDS011;11357;49.990;7.370;2023-07-20T12:07:34;1.75;;;1.20;;
22378;SDS011;11357;49.990;7.370;2023-07-20T12:12:42;2.67;;;1.40;;
22378;SDS011;11357;49.990;7.370;2023-07-20T12:17:52;2.90;;;1.30;;
22378;SDS011;11357;49.990;7.370;2023-07-20T12:20:32;2.55;;;1.40;;
22378;SDS011;11357;49.990;7.370;2023-07-20T12:23:01;2.67;;;1.23;;
22378;SDS011;11357;49.990;7.370;2023-07-20T12:25:34;2.88;;;1.08;;
22378;SDS011;11357;49.990;7.370;2023-07-20T12:28:08;1.50;;;1.20;;
22378;SDS011;11357;49.990;7.370;2023-07-20T12:30:35;2.05;;;1.30;;
22378;SDS011;11357;49.990;7.370;2023-07-20T12:33:05;1.35;;;0.90;;
22378;SDS011;11357;49.990;7.370;2023-07-20T12:35:31;5.22;;;1.00;;
22378;SDS011;11357;49.990;7.370;2023-07-20T12:37:57;3.97;;;1.10;;
22378;SDS011;11357;49.990;7.370;2023-07-20T12:40:23;5.10;;;1.35;;
22378;SDS011;11357;49.990;7.370;2023-07-20T12:42:49;1.67;;;1.00;;
22378;SDS011;11357;49.990;7.370;2023-07-20T12:45:15;2.47;;;1.00;;
22378;SDS011;11357;49.990;7.370;2023-07-20T12:47:41;5.75;;;0.95;;
22378;SDS011;11357;49.990;7.370;2023-07-20T12:50:08;1.60;;;0.90;;
22378;SDS011;11357;49.990;7.370;2023-07-20T12:52:38;1.40;;;0.80;;
22378;SDS011;11357;49.990;7.370;2023-07-20T12:55:05;2.47;;;1.05;;
22378;SDS011;11357;49.990;7.370;2023-07-20T12:57:33;3.20;;;0.95;;
22378;SDS011;11357;49.990;7.370;2023-07-20T12:59:59;1.77;;;1.00;;
22378;SDS011;11357;49.990;7.370;2023-07-20T13:02:26;1.42;;;1.05;;
22378;SDS011;11357;49.990;7.370;2023-07-20T13:04:52;2.50;;;1.02;;
22378;SDS011;11357;49.990;7.370;2023-07-20T13:07:18;3.75;;;0.93;;
22378;SDS011;11357;49.990;7.370;2023-07-20T13:10:01;1.63;;;0.95;;
22378;SDS011;11357;49.990;7.370;2023-07-20T13:12:29;2.38;;;1.00;;
22378;SDS011;11357;49.990;7.370;2023-07-20T13:14:56;2.65;;;1.00;;
22378;SDS011;11357;49.990;7.370;2023-07-20T13:17:22;0.80;;;0.80;;
22378;SDS011;11357;49.990;7.370;2023-07-20T13:19:48;0.80;;;0.80;;
22378;SDS011;11357;49.990;7.370;2023-07-20T13:22:14;3.75;;;1.40;;
22378;SDS011;11357;49.990;7.370;2023-07-20T13:24:40;3.20;;;1.77;;
22378;SDS011;11357;49.990;7.370;2023-07-20T13:27:06;3.67;;;1.92;;
22378;SDS011;11357;49.990;7.370;2023-07-20T13:29:32;2.60;;;1.73;;
22378;SDS011;11357;49.990;7.370;2023-07-20T13:31:58;5.30;;;2.25;;
22378;SDS011;11357;49.990;7.370;2023-07-20T13:34:24;7.65;;;1.48;;
22378;SDS011;11357;49.990;7.370;2023-07-20T13:36:50;2.70;;;1.63;;
22378;SDS011;11357;49.990;7.370;2023-07-20T13:39:16;4.30;;;1.75;;
22378;SDS011;11357;49.990;7.370;2023-07-20T13:41:42;3.53;;;1.73;;
22378;SDS011;11357;49.990;7.370;2023-07-20T13:44:08;2.38;;;1.48;;
22378;SDS011;11357;49.990;7.370;2023-07-20T13:46:33;3.53;;;1.30;;
22378;SDS011;11357;49.990;7.370;2023-07-20T13:48:59;2.78;;;1.63;;
22378;SDS011;11357;49.990;7.370;2023-07-20T13:51:25;7.25;;;2.03;;
22378;SDS011;11357;49.990;7.370;2023-07-20T13:53:51;4.07;;;1.50;;
22378;SDS011;11357;49.990;7.370;2023-07-20T13:56:17;5.32;;;1.40;;
22378;SDS011;11357;49.990;7.370;2023-07-20T13:58:42;3.67;;;1.63;;
22378;SDS011;11357;49.990;7.370;2023-07-20T14:01:08;4.93;;;1.80;;
22378;SDS011;11357;49.990;7.370;2023-07-20T14:03:34;4.40;;;1.63;;
22378;SDS011;11357;49.990;7.370;2023-07-20T14:05:59;4.78;;;1.70;;
22378;SDS011;11357;49.990;7.370;2023-07-20T14:08:25;2.95;;;1.80;;
22378;SDS011;11357;49.990;7.370;2023-07-20T14:10:50;4.53;;;2.03;;
22378;SDS011;11357;49.990;7.370;2023-07-20T14:13:16;8.90;;;1.85;;
22378;SDS011;11357;49.990;7.370;2023-07-20T14:15:42;7.63;;;1.67;;
22378;SDS011;11357;49.990;7.370;2023-07-20T14:18:08;9.98;;;2.28;;
22378;SDS011;11357;49.990;7.370;2023-07-20T14:20:33;29.52;;;3.28;;
22378;SDS011;11357;49.990;7.370;2023-07-20T14:23:00;2.58;;;1.70;;
22378;SDS011;11357;49.990;7.370;2023-07-20T14:25:25;4.25;;;1.40;;
22378;SDS011;11357;49.990;7.370;2023-07-20T14:27:51;3.25;;;1.70;;
22378;SDS011;11357;49.990;7.370;2023-07-20T14:30:17;4.90;;;1.80;;
22378;SDS011;11357;49.990;7.370;2023-07-20T14:32:43;11.63;;;2.25;;
22378;SDS011;11357;49.990;7.370;2023-07-20T14:35:08;3.03;;;1.33;;
22378;SDS011;11357;49.990;7.370;2023-07-20T14:37:34;2.15;;;1.48;;
22378;SDS011;11357;49.990;7.370;2023-07-20T14:40:00;1.85;;;1.30;;
22378;SDS011;11357;49.990;7.370;2023-07-20T14:42:26;4.88;;;1.38;;
22378;SDS011;11357;49.990;7.370;2023-07-20T14:44:57;2.10;;;1.40;;
22378;SDS011;11357;49.990;7.370;2023-07-20T14:47:22;3.35;;;1.20;;
22378;SDS011;11357;49.990;7.370;2023-07-20T14:49:48;3.55;;;1.40;;
22378;SDS011;11357;49.990;7.370;2023-07-20T14:52:14;2.22;;;1.40;;
22378;SDS011;11357;49.990;7.370;2023-07-20T14:54:39;11.45;;;1.30;;
22378;SDS011;11357;49.990;7.370;2023-07-20T14:57:05;4.35;;;1.40;;
22378;SDS011;11357;49.990;7.370;2023-07-20T14:59:38;1.98;;;1.38;;
22378;SDS011;11357;49.990;7.370;2023-07-20T15:02:04;1.73;;;1.27;;
22378;SDS011;11357;49.990;7.370;2023-07-20T15:04:30;2.35;;;1.50;;
22378;SDS011;11357;49.990;7.370;2023-07-20T15:06:56;3.15;;;1.30;;
22378;SDS011;11357;49.990;7.370;2023-07-20T15:09:21;4.07;;;1.40;;
22378;SDS011;11357;49.990;7.370;2023-07-20T15:11:47;3.15;;;1.52;;
22378;SDS011;11357;49.990;7.370;2023-07-20T15:14:13;1.55;;;1.38;;
22378;SDS011;11357;49.990;7.370;2023-07-20T15:16:38;1.90;;;1.40;;
22378;SDS011;11357;49.990;7.370;2023-07-20T15:19:04;2.40;;;1.20;;
22378;SDS011;11357;49.990;7.370;2023-07-20T15:21:30;3.58;;;1.58;;
22378;SDS011;11357;49.990;7.370;2023-07-20T15:23:57;7.00;;;1.30;;
22378;SDS011;11357;49.990;7.370;2023-07-20T15:26:23;3.28;;;1.30;;
22378;SDS011;11357;49.990;7.370;2023-07-20T15:28:50;5.53;;;1.20;;
22378;SDS011;11357;49.990;7.370;2023-07-20T15:31:15;2.10;;;1.23;;
22378;SDS011;11357;49.990;7.370;2023-07-20T15:33:41;1.95;;;1.15;;
22378;SDS011;11357;49.990;7.370;2023-07-20T15:36:08;2.40;;;1.17;;
22378;SDS011;11357;49.990;7.370;2023-07-20T15:38:34;5.10;;;1.13;;
22378;SDS011;11357;49.990;7.370;2023-07-20T15:40:59;2.15;;;1.10;;
22378;SDS011;11357;49.990;7.370;2023-07-20T15:43:26;4.93;;;1.40;;
22378;SDS011;11357;49.990;7.370;2023-07-20T15:45:58;2.63;;;1.25;;
22378;SDS011;11357;49.990;7.370;2023-07-20T15:48:30;2.10;;;1.10;;
22378;SDS011;11357;49.990;7.370;2023-07-20T15:50:55;3.78;;;1.00;;
22378;SDS011;11357;49.990;7.370;2023-07-20T15:53:21;1.23;;;0.90;;
22378;SDS011;11357;49.990;7.370;2023-07-20T15:55:52;2.05;;;1.08;;
22378;SDS011;11357;49.990;7.370;2023-07-20T15:58:19;3.42;;;1.45;;
22378;SDS011;11357;49.990;7.370;2023-07-20T16:00:45;2.20;;;1.33;;
22378;SDS011;11357;49.990;7.370;2023-07-20T16:03:11;3.35;;;1.00;;
22378;SDS011;11357;49.990;7.370;2023-07-20T16:05:36;2.70;;;1.10;;
22378;SDS011;11357;49.990;7.370;2023-07-20T16:08:02;1.75;;;0.95;;
22378;SDS011;11357;49.990;7.370;2023-07-20T16:10:29;2.80;;;1.35;;
22378;SDS011;11357;49.990;7.370;2023-07-20T16:12:55;1.40;;;1.15;;
22378;SDS011;11357;49.990;7.370;2023-07-20T16:15:20;3.20;;;1.35;;
22378;SDS011;11357;49.990;7.370;2023-07-20T16:17:46;3.88;;;1.20;;
22378;SDS011;11357;49.990;7.370;2023-07-20T16:20:12;3.10;;;1.33;;
22378;SDS011;11357;49.990;7.370;2023-07-20T16:22:37;6.28;;;1.02;;
22378;SDS011;11357;49.990;7.370;2023-07-20T16:25:04;2.38;;;1.38;;
22378;SDS011;11357;49.990;7.370;2023-07-20T16:27:30;2.17;;;1.20;;
22378;SDS011;11357;49.990;7.370;2023-07-20T16:29:55;1.80;;;1.30;;
22378;SDS011;11357;49.990;7.370;2023-07-20T16:32:21;3.92;;;1.50;;